Terminal Aerodrome Forecast
Issued by NWS

Home | Current Version | Previous Version | Text Only | Print | Product List | Glossary On
Versions: 1 2 3 4 5 6 7 8 9 10 11 12 13 14 15 16 17 18 19 20 21 22 23 24 25 26 27
000
FTUS42 KJAX 021421 AAB
TAFVQQ
TAF AMD
KVQQ 021421Z 0214/0312 21007KT P6SM SCT015 BKN040
      TEMPO 0214/0216 BKN015
     FM021600 21013KT P6SM VCSH SCT020 BKN060
     FM021900 21015G20KT P6SM VCTS BKN020CB
     FM030200 18010KT P6SM SCT020 SCT060=

USA.gov is the U.S. government's official web portal to all federal, state and local government web resources and services.